Aeroporto :
LOGIN :

Iscrizione | Disclaimer

   EN    FR    IT 

 










Sommario :    VFR   VFR Marginale   IFR   IFR Intensivo   IFR Molto Intensivo
Visibilità : 
Base nubi : 
>= 8 km
>= 3000ft
5 / 8 km
1000 / 3000 ft
1500m / 5 km
500 / 1000 ft
800 / 1500m
200 / 500 ft
< 800m
< 200 ft
Simboli :   Temporali  Nebbia  Neve Forte  Precipitazioni Forti  Vento > 20 kt
SIGMETs :   Varie  Temporali  Ghiacco  Turbolenza  Onda orograficha  Ceneri Vulcaniche







- Altitudine del aeroporto : 162 ft
- Codice IATA : BOD
- Carte del aeroporto


LFBD - Bordeaux / Merignac

ULTIMO METAR :
  • 190100Z AUTO 24007KT 6000 SCT004 OVC094 17/16 Q1011 TEMPO 4000 BR BKN004 BKN070CB

METARs OBSOLETI :
  • 190030Z AUTO 24008KT 5000 BR BKN004/// BKN008/// BKN092/// ///CB 17/16 Q1010 TEMPO VRB15G30KT 2000 TSRA BKN080TCU
  • 190000Z AUTO 23007KT 7000 VCTS BKN006/// BKN094/// ///CB 18/17 Q1010 TEMPO VRB15G30KT 2000 TSRA
  • 182330Z AUTO 13005KT 100V170 7000 TS BKN005/// BKN022/// BKN058/// ///CB 18/17 Q1010 TEMPO VRB15G30KT 2000 TSRA
  • 182300Z AUTO 26010KT 9999 TS FEW007/// BKN096/// BKN120/// ///CB 18/16 Q1009 TEMPO NSW BECMG 32010KT
  • 182230Z AUTO 36006KT 330V030 9999 TS ///CB 19/15 Q1008 TEMPO NSW

TAF AMD TAF LFBD
Valido dal 19 a 00 ore il 20 a 06 ore UTC


190044Z 1900/2006 VRB02KT CAVOK TX24/1915Z TN16/2003Z
PROB30
TEMPO 1900/1904 -SHRA BKN080TCU
PROB30
TEMPO 1900/1904 4000 BR BKN004 BKN070CB
BECMG 1904/1906 BKN040
BECMG 1910/1912 30008KT
BECMG 1915/1917 CAVOK
BECMG 1921/1923 BKN012
ATIS : +33 5 57 92 81 04
Nessun NOTAM noto per questo aeroporto.
5 SIGMETs conosciuti per la FIR Bordeaux (LFBB) :
 
Cancellazione del SIGMET 3 
LFBB SIGMET 6 VALID 182340/190100 LFPW
LFBB BORDEAUX FIR/UIR CNL SIGMET 3 182300/190100=
Temporali affogati con grandine
LFBB SIGMET 5 VALID 182345/190145 LFPW
LFBB BORDEAUX FIR/UIR EMBD TSGR OBS AT 2340Z WI N4700 E00030 - N4445 E00145 - N4400 E00045 - N4500 W00130 - N4700 E00030 TOP FL370 MOV NE 25KT NC=
Cancellazione del SIGMET 2 
LFBB SIGMET 4 VALID 182305/190200 LFPW
LFBB BORDEAUX FIR/UIR CNL SIGMET 2 182200/190200=
Temporali frequenti con grandine
LFBB SIGMET 3 VALID 182300/190100 LFPW
LFBB BORDEAUX FIR/UIR FRQ TSGR OBS AT 2230Z WI N4445 E00045 - N4445 W00030 - N4630 E00000 - N4630 E00100 - N4445 E00045 TOP FL370 MOV NE 25KT NC=
SIGMET 2  ANNULATO :
Temporali frequenti con grandine
LFBB SIGMET 2 VALID 182200/190200 LFPW
LFBB BORDEAUX FIR/UIR FRQ TSGR FCST WI N4545 E00030 - N4400 W00030 - N4415 W00145 - N4615 W00030 - N4545 E00030 TOP FL380 MOV NE 25KT NC=



MetMap, La meteo Aeronautica in un colpo d'occhio ! - Copyright ORBIFLY Dicembre 2007 - Disclaimer

ORBIFLY MET'MAP TEAM :

Programmazione e sviluppo : Alexandra Zaïnal
Concezione e sviluppo : Baudouin d'Aumeries
Co-Programmazione e sviluppo : Marc-Olivier Méhu
Supporto tecnico e logistico : Manuel Goepfert
Aiuto per la traduzione : Arnaldo La Scala

Contatto : metmap@orbifly.com




FONTI E CREDITI :

   NOAA